Time;durP1;ratioP1;P1;durP2;ratioP2;P2;SDS_P1;SDS_P2;PMS_P1;PMS_P2;Temp;Humidity;BMP_temperature;BMP_pressure;BME280_temperature;BME280_humidity;BME280_pressure;Samples;Min_cycle;Max_cycle;Signal;HPM_P1;HPM_P2
2022/12/17 13:06:05;;;;;;;;;;;;;;;20.11;40.13;102241.56;5041246;28;4148;-67
2022/12/17 13:08:31;;;;;;;;;;;;;;;20.11;40.02;102241.56;5036973;28;4196;-67
2022/12/17 13:10:57;;;;;;;;;;;;;;;20.11;40.10;102247.31;5034064;28;5343;-65
2022/12/17 13:13:29;;;;;;;;;;;;;;;20.11;40.13;102247.31;5040641;28;4038;-67
2022/12/17 13:15:57;;;;;;;;;;;;;;;20.09;40.06;102257.31;5039916;28;4171;-67
2022/12/17 13:18:28;;;;;;;;;;;;;;;20.08;40.04;102250.06;5032801;28;4136;-66
2022/12/17 13:20:58;;;;;;;;;;;;;;;20.11;40.06;102258.81;5045303;28;4134;-66
2022/12/17 13:23:26;;;;;;;;;;;;;;;20.09;40.12;102257.31;5047717;28;4060;-66
2022/12/17 13:26:22;;;;;;;;;;;;;;;20.12;40.12;102266.09;5043285;28;4085;-67
2022/12/17 13:28:56;;;;;;;;;;;;;;;20.12;40.17;102263.22;5018816;28;4042;-65
2022/12/17 13:31:27;;;;;;;;;;;;;;;20.12;40.17;102263.22;5041418;28;5238;-66
2022/12/17 13:33:57;;;;;;;;;;;;;;;20.11;40.21;102255.94;5049967;28;4105;-66
2022/12/17 13:36:29;;;;;;;;;;;;;;;20.11;40.17;102264.56;5040160;28;4190;-65
2022/12/17 13:39:16;;;;;;;;;;;;;;;20.11;40.25;102264.56;5027419;28;4573;-66
2022/12/17 13:41:42;;;;;;;;;;;;;;;20.11;40.23;102262.44;5039595;28;4162;-66
2022/12/17 13:44:16;;;;;;;;;;;;;;;20.11;40.09;102264.56;5036711;28;4022;-65
2022/12/17 13:46:43;;;;;;;;;;;;;;;20.11;40.11;102271.06;5045135;28;4226;-65
2022/12/17 13:49:16;;;;;;;;;;;;;;;20.11;40.13;102281.84;5033614;28;3966;-66
2022/12/17 13:51:43;;;;;;;;;;;;;;;20.13;40.27;102279.09;5035978;28;4284;-65
2022/12/17 13:54:14;;;;;;;;;;;;;;;20.13;40.30;102276.22;5037856;28;4011;-66
2022/12/17 13:56:40;;;;;;;;;;;;;;;20.14;40.17;102289.25;5038922;28;4321;-65
2022/12/17 13:59:14;;;;;;;;;;;;;;;20.13;40.18;102290.59;5034013;28;6023;-65
2022/12/17 14:01:44;;;;;;;;;;;;;;;20.15;40.19;102305.13;5039323;28;4134;-64
2022/12/17 14:04:18;;;;;;;;;;;;;;;20.17;40.24;102308.16;5029011;28;4146;-65
2022/12/17 14:06:44;;;;;;;;;;;;;;;20.18;40.16;102309.66;5035772;28;4240;-66
2022/12/17 14:09:16;;;;;;;;;;;;;;;20.16;40.27;102307.41;5029421;28;5429;-65
2022/12/17 14:14:30;;;;;;;;;;;;;;;20.18;40.32;102306.78;5032048;28;4326;-66
2022/12/17 14:16:56;;;;;;;;;;;;;;;20.19;40.30;102320.56;5028048;28;4546;-65
2022/12/17 14:19:23;;;;;;;;;;;;;;;20.18;40.36;102321.16;5042456;28;4056;-65
2022/12/17 14:21:49;;;;;;;;;;;;;;;20.18;40.30;102313.31;5044844;28;4181;-65
2022/12/17 14:24:15;;;;;;;;;;;;;;;20.17;40.36;102313.91;5037371;28;3935;-66
2022/12/17 14:26:49;;;;;;;;;;;;;;;20.16;40.38;102315.25;5047905;28;4159;-65
2022/12/17 14:29:19;;;;;;;;;;;;;;;20.18;40.38;102315.41;5038436;28;4098;-66
2022/12/17 14:32:01;;;;;;;;;;;;;;;20.17;40.38;102319.66;5040747;28;4155;-65
2022/12/17 14:34:28;;;;;;;;;;;;;;;20.17;40.38;102325.41;5034537;28;5034;-66
2022/12/17 14:36:58;;;;;;;;;;;;;;;20.17;40.32;102325.41;5022900;28;5321;-65
2022/12/17 14:39:24;;;;;;;;;;;;;;;20.19;40.39;102322.69;5034964;28;5881;-65
2022/12/17 14:44:37;;;;;;;;;;;;;;;20.19;40.31;102334.19;5027066;28;4114;-66
2022/12/17 14:47:07;;;;;;;;;;;;;;;20.20;40.46;102341.44;5047672;28;4675;-65
2022/12/17 14:49:33;;;;;;;;;;;;;;;20.19;40.42;102331.31;5037297;28;4185;-65
2022/12/17 14:52:09;;;;;;;;;;;;;;;20.20;40.42;102341.44;5042639;28;5397;-65
2022/12/17 14:54:36;;;;;;;;;;;;;;;20.19;40.48;102346.44;5045513;28;4050;-65
2022/12/17 14:57:05;;;;;;;;;;;;;;;20.20;40.41;102350.06;5039623;28;5452;-65
2022/12/17 14:59:32;;;;;;;;;;;;;;;20.22;40.39;102355.97;5041053;28;4386;-65
2022/12/17 15:02:02;;;;;;;;;;;;;;;20.22;40.42;102355.97;5039710;28;4090;-66
2022/12/17 15:04:29;;;;;;;;;;;;;;;20.23;40.44;102349.63;5046922;28;4016;-65
2022/12/17 15:06:56;;;;;;;;;;;;;;;20.24;40.40;102359.00;5024536;28;5433;-65
2022/12/17 15:09:22;;;;;;;;;;;;;;;20.24;40.33;102353.22;5040540;28;5388;-65
2022/12/17 15:11:49;;;;;;;;;;;;;;;20.24;40.41;102359.75;5043044;28;4101;-66
2022/12/17 15:14:15;;;;;;;;;;;;;;;20.26;40.49;102362.75;5033066;28;5329;-66
2022/12/17 15:16:41;;;;;;;;;;;;;;;20.25;40.48;102363.38;5038981;28;4012;-66
2022/12/17 15:19:08;;;;;;;;;;;;;;;20.26;40.39;102370.66;5039274;28;4116;-65
2022/12/17 15:21:34;;;;;;;;;;;;;;;20.24;40.49;102373.38;5048144;28;4214;-65
2022/12/17 15:24:01;;;;;;;;;;;;;;;20.24;40.48;102361.88;5040798;28;4283;-66
2022/12/17 15:26:27;;;;;;;;;;;;;;;20.23;40.57;102375.50;5051080;28;4411;-65
2022/12/17 15:28:53;;;;;;;;;;;;;;;20.23;40.51;102380.50;5038497;28;4058;-68
2022/12/17 15:31:20;;;;;;;;;;;;;;;20.23;40.60;102380.50;5046540;28;4288;-66
2022/12/17 15:33:52;;;;;;;;;;;;;;;20.25;40.46;102384.28;5041708;28;4129;-66
2022/12/17 15:36:18;;;;;;;;;;;;;;;20.26;40.44;102387.91;5036423;28;4209;-66
2022/12/17 15:38:45;;;;;;;;;;;;;;;20.25;40.63;102392.16;5032978;28;4128;-65
2022/12/17 15:43:58;;;;;;;;;;;;;;;20.26;40.65;102396.53;5043352;28;3966;-66
2022/12/17 15:46:25;;;;;;;;;;;;;;;20.27;40.51;102386.53;5034607;28;4143;-66
2022/12/17 15:48:51;;;;;;;;;;;;;;;20.24;40.61;102387.75;5037403;28;4119;-66
2022/12/17 15:51:19;;;;;;;;;;;;;;;20.26;40.60;102385.78;5041210;28;4056;-67
2022/12/17 15:53:46;;;;;;;;;;;;;;;20.26;40.47;102387.91;5043033;28;4077;-66
2022/12/17 15:56:23;;;;;;;;;;;;;;;20.27;40.53;102389.41;5037733;28;5312;-67
2022/12/17 15:58:49;;;;;;;;;;;;;;;20.27;40.57;102386.53;5044410;28;4168;-67
2022/12/17 16:01:15;;;;;;;;;;;;;;;20.28;40.58;102393.81;5046257;28;4270;-67
2022/12/17 16:03:42;;;;;;;;;;;;;;;20.29;40.63;102389.53;5048957;28;4058;-64
2022/12/17 16:06:08;;;;;;;;;;;;;;;20.25;40.69;102389.28;5049402;28;4765;-65
2022/12/17 16:08:37;;;;;;;;;;;;;;;20.25;40.61;102384.28;5047359;28;4159;-65
2022/12/17 16:11:04;;;;;;;;;;;;;;;20.26;40.57;102385.03;5052285;28;5349;-65
2022/12/17 16:13:31;;;;;;;;;;;;;;;20.27;40.45;102398.81;5026693;28;4108;-65
2022/12/17 16:15:57;;;;;;;;;;;;;;;20.28;40.47;102399.56;5036201;28;5324;-65
2022/12/17 16:18:29;;;;;;;;;;;;;;;20.29;40.46;102409.69;5045462;28;4100;-65
2022/12/17 16:21:00;;;;;;;;;;;;;;;20.29;40.43;102403.94;5052123;28;5138;-65
2022/12/17 16:23:26;;;;;;;;;;;;;;;20.30;40.35;102403.31;5049446;28;4149;-65
2022/12/17 16:26:00;;;;;;;;;;;;;;;20.31;40.33;102404.06;5045295;28;3971;-65
2022/12/17 16:28:26;;;;;;;;;;;;;;;20.30;40.36;102403.31;5032246;28;4196;-65
2022/12/17 16:30:56;;;;;;;;;;;;;;;20.32;40.35;102408.47;5036825;28;4083;-65
2022/12/17 16:33:22;;;;;;;;;;;;;;;20.32;40.38;102411.34;5041862;28;4187;-65
2022/12/17 16:35:52;;;;;;;;;;;;;;;20.32;40.45;102411.34;5055347;28;4246;-65
2022/12/17 16:38:18;;;;;;;;;;;;;;;20.33;40.40;102409.22;5046139;28;5080;-65
2022/12/17 16:40:45;;;;;;;;;;;;;;;20.31;40.55;102412.72;5053759;28;4127;-65
2022/12/17 16:43:11;;;;;;;;;;;;;;;20.31;40.39;102412.72;5054117;28;4025;-65
2022/12/17 16:45:45;;;;;;;;;;;;;;;20.30;40.53;102408.34;5052764;28;4130;-65
2022/12/17 16:48:11;;;;;;;;;;;;;;;20.30;40.45;102414.84;5058145;28;5192;-66
2022/12/17 16:50:38;;;;;;;;;;;;;;;20.31;40.43;102415.59;5038334;28;5244;-66
2022/12/17 16:53:04;;;;;;;;;;;;;;;20.28;40.50;102420.44;5039457;28;4220;-66
2022/12/17 16:55:30;;;;;;;;;;;;;;;20.32;40.46;102428.63;5043217;28;4088;-66
2022/12/17 16:57:57;;;;;;;;;;;;;;;20.32;40.47;102425.75;5036914;28;5543;-67
2022/12/17 17:00:23;;;;;;;;;;;;;;;20.34;40.39;102428.00;5037095;28;4247;-65
2022/12/17 17:02:49;;;;;;;;;;;;;;;20.33;40.40;102433.00;5038216;28;4158;-65
2022/12/17 17:05:19;;;;;;;;;;;;;;;20.34;40.45;102428.75;5042950;28;4152;-65
2022/12/17 17:07:45;;;;;;;;;;;;;;;20.32;40.45;102422.88;5042402;28;4155;-65
2022/12/17 17:10:11;;;;;;;;;;;;;;;20.34;40.36;102423.00;5040205;28;5241;-65
2022/12/17 17:12:38;;;;;;;;;;;;;;;20.34;40.50;102425.91;5033597;28;4122;-65
2022/12/17 17:15:04;;;;;;;;;;;;;;;20.36;40.49;102428.88;5036874;28;4185;-65
2022/12/17 17:17:30;;;;;;;;;;;;;;;20.36;40.41;102431.75;5037087;28;4191;-65
2022/12/17 17:20:17;;;;;;;;;;;;;;;20.36;40.47;102428.88;5040163;28;4110;-65
2022/12/17 17:22:43;;;;;;;;;;;;;;;20.38;40.43;102437.66;5043413;28;5248;-65
2022/12/17 17:25:09;;;;;;;;;;;;;;;20.38;40.49;102437.66;5040474;28;4027;-65
2022/12/17 17:27:36;;;;;;;;;;;;;;;20.39;40.48;102444.19;5037937;28;4242;-65
2022/12/17 17:30:02;;;;;;;;;;;;;;;20.40;40.46;102439.94;5034422;28;5330;-66
2022/12/17 17:32:29;;;;;;;;;;;;;;;20.38;40.60;102449.19;5037094;28;4025;-67
2022/12/17 17:34:56;;;;;;;;;;;;;;;20.38;40.52;102454.94;5029811;28;4243;-70
2022/12/17 17:37:22;;;;;;;;;;;;;;;20.36;40.46;102446.16;5025582;28;4318;-59
2022/12/17 17:39:51;;;;;;;;;;;;;;;20.24;40.46;102445.28;5034740;28;4121;-65
2022/12/17 17:42:17;;;;;;;;;;;;;;;20.33;40.39;102446.63;5015313;28;4185;-66
2022/12/17 17:44:43;;;;;;;;;;;;;;;20.32;40.58;102451.63;5030101;28;3976;-61
2022/12/17 17:47:10;;;;;;;;;;;;;;;21.02;41.42;102459.41;5034223;28;5090;-67
2022/12/17 17:49:36;;;;;;;;;;;;;;;20.69;40.22;102460.03;5035912;28;4193;-67
2022/12/17 17:52:03;;;;;;;;;;;;;;;20.57;40.35;102464.91;5026988;28;4161;-68
2022/12/17 17:54:41;;;;;;;;;;;;;;;20.46;39.99;102467.03;5026701;28;4248;-62
2022/12/17 17:57:13;;;;;;;;;;;;;;;20.47;40.08;102467.78;5034131;28;4134;-66
2022/12/17 17:59:40;;;;;;;;;;;;;;;20.50;39.99;102467.34;5021898;28;4804;-66
2022/12/17 18:02:08;;;;;;;;;;;;;;;20.50;39.96;102467.34;5024470;28;4095;-65
2022/12/17 18:04:34;;;;;;;;;;;;;;;20.51;39.88;102468.81;5042993;28;4124;-64
2022/12/17 18:07:01;;;;;;;;;;;;;;;20.59;39.80;102467.91;5037619;28;4127;-64
2022/12/17 18:09:50;;;;;;;;;;;;;;;20.50;39.75;102470.22;5036164;28;4165;-65
2022/12/17 18:15:01;;;;;;;;;;;;;;;20.49;39.92;102477.31;5036569;28;3991;-66
2022/12/17 18:17:41;;;;;;;;;;;;;;;20.50;40.10;102473.09;5043288;28;4407;-66
2022/12/17 18:20:08;;;;;;;;;;;;;;;20.55;39.93;102479.09;5033631;28;4105;-65
2022/12/17 18:22:35;;;;;;;;;;;;;;;20.60;39.92;102484.59;5038388;28;4260;-66
2022/12/17 18:25:01;;;;;;;;;;;;;;;20.60;39.75;102484.59;5040732;28;4030;-67
2022/12/17 18:27:28;;;;;;;;;;;;;;;20.61;39.78;102482.47;5040557;28;4520;-65
2022/12/17 18:29:54;;;;;;;;;;;;;;;20.51;39.79;102474.59;5032389;28;4144;-66
2022/12/17 18:32:20;;;;;;;;;;;;;;;20.47;40.24;102479.28;5027488;28;4762;-67
2022/12/17 18:34:47;;;;;;;;;;;;;;;20.45;40.11;102479.91;5030808;28;4090;-68
2022/12/17 18:37:13;;;;;;;;;;;;;;;20.42;40.25;102486.88;5032548;28;5494;-67
2022/12/17 18:39:39;;;;;;;;;;;;;;;20.39;40.26;102491.00;5037877;28;4023;-67
2022/12/17 18:44:52;;;;;;;;;;;;;;;20.32;40.17;102497.66;5035543;28;4179;-67
2022/12/17 18:47:18;;;;;;;;;;;;;;;20.47;40.63;102500.19;5042371;28;4858;-68
2022/12/17 18:49:44;;;;;;;;;;;;;;;20.65;40.25;102495.03;5031937;28;4050;-64
2022/12/17 18:52:17;;;;;;;;;;;;;;;20.66;40.31;102501.53;5037063;28;4146;-64
2022/12/17 18:54:43;;;;;;;;;;;;;;;20.63;40.14;102508.50;5042126;28;4180;-64
2022/12/17 18:57:10;;;;;;;;;;;;;;;20.84;39.92;102504.94;5039184;28;4124;-65
2022/12/17 18:59:39;;;;;;;;;;;;;;;20.97;39.52;102509.44;5029327;28;4032;-65
2022/12/17 19:02:08;;;;;;;;;;;;;;;20.83;39.67;102514.97;5042049;28;4120;-65
2022/12/17 19:04:35;;;;;;;;;;;;;;;20.62;40.04;102521.41;5034768;28;4143;-66
2022/12/17 19:07:02;;;;;;;;;;;;;;;20.74;39.84;102522.25;5039641;28;4059;-64
2022/12/17 19:09:30;;;;;;;;;;;;;;;20.80;39.82;102524.81;5043689;28;4139;-64
2022/12/17 19:11:56;;;;;;;;;;;;;;;20.81;39.79;102524.22;5037278;28;4326;-65
2022/12/17 19:14:32;;;;;;;;;;;;;;;20.82;39.96;102524.97;5045043;28;4105;-64
2022/12/17 19:17:01;;;;;;;;;;;;;;;20.86;39.84;102537.50;5041367;28;4108;-65
2022/12/17 19:19:27;;;;;;;;;;;;;;;20.90;39.77;102532.06;5043444;28;4254;-67
2022/12/17 19:21:54;;;;;;;;;;;;;;;20.93;39.61;102536.56;5040359;28;4167;-66
2022/12/17 19:24:20;;;;;;;;;;;;;;;20.77;39.91;102535.44;5047768;28;4036;-66
2022/12/17 19:26:47;;;;;;;;;;;;;;;20.83;39.92;102546.63;5035980;28;4034;-65
2022/12/17 19:29:13;;;;;;;;;;;;;;;20.92;39.64;102543.72;5037179;28;4011;-67
2022/12/17 19:31:40;;;;;;;;;;;;;;;20.99;39.57;102549.91;5037559;28;5096;-66
2022/12/17 19:34:08;;;;;;;;;;;;;;;21.15;39.38;102553.94;5047613;28;4854;-64
2022/12/17 19:36:34;;;;;;;;;;;;;;;21.22;39.31;102549.34;5040157;28;6261;-64
2022/12/17 19:39:02;;;;;;;;;;;;;;;21.19;39.29;102557.09;5026135;28;6834;-65
2022/12/17 19:41:30;;;;;;;;;;;;;;;21.19;39.09;102557.09;5035884;28;4159;-65
2022/12/17 19:43:58;;;;;;;;;;;;;;;21.17;38.92;102559.84;5037221;28;4128;-66
2022/12/17 19:46:24;;;;;;;;;;;;;;;21.18;38.92;102567.09;5045847;28;4226;-65
2022/12/17 19:48:51;;;;;;;;;;;;;;;21.17;39.04;102559.84;5033586;28;5309;-66
2022/12/17 19:51:19;;;;;;;;;;;;;;;20.80;39.35;102568.78;5041822;28;4139;-65
2022/12/17 19:53:45;;;;;;;;;;;;;;;20.80;39.88;102568.00;5039569;28;4301;-67
2022/12/17 19:56:12;;;;;;;;;;;;;;;20.79;39.56;102575.88;5049531;28;4100;-65
2022/12/17 19:58:39;;;;;;;;;;;;;;;20.77;39.84;102575.75;5044700;28;4062;-65
2022/12/17 20:01:13;;;;;;;;;;;;;;;20.76;39.42;102574.25;5042565;28;4080;-65
2022/12/17 20:03:39;;;;;;;;;;;;;;;20.74;39.35;102587.72;5041309;28;4159;-65
2022/12/17 20:06:06;;;;;;;;;;;;;;;20.68;39.34;102574.41;5052325;28;4136;-65
2022/12/17 20:08:32;;;;;;;;;;;;;;;20.74;39.20;102576.22;5042822;28;5314;-63
2022/12/17 20:10:59;;;;;;;;;;;;;;;20.81;39.27;102573.16;5040616;28;5114;-64
2022/12/17 20:13:25;;;;;;;;;;;;;;;20.81;39.29;102581.78;5037486;28;4078;-64
2022/12/17 20:16:01;;;;;;;;;;;;;;;20.70;39.18;102579.53;5031585;28;4128;-64
2022/12/17 20:18:27;;;;;;;;;;;;;;;20.71;39.32;102583.94;5030849;28;4057;-64
2022/12/17 20:21:01;;;;;;;;;;;;;;;20.77;39.30;102569.97;5048656;28;4195;-66
2022/12/17 20:23:27;;;;;;;;;;;;;;;20.80;39.23;102585.28;5049184;28;4186;-66
2022/12/17 20:26:03;;;;;;;;;;;;;;;20.79;39.25;102589.53;5049539;28;5174;-66
2022/12/17 20:28:29;;;;;;;;;;;;;;;20.77;39.36;102595.88;5033809;28;4257;-70
2022/12/17 20:30:59;;;;;;;;;;;;;;;20.62;39.84;102587.59;5032656;28;5095;-67
2022/12/17 20:33:26;;;;;;;;;;;;;;;20.59;39.93;102594.56;5026740;28;5366;-67
2022/12/17 20:35:52;;;;;;;;;;;;;;;20.71;39.95;102598.34;5034268;28;4518;-68
2022/12/17 20:38:21;;;;;;;;;;;;;;;20.75;40.16;102601.50;5036485;28;4128;-68
2022/12/17 20:40:48;;;;;;;;;;;;;;;20.78;40.08;102600.28;5038929;28;4065;-70
2022/12/17 20:43:17;;;;;;;;;;;;;;;20.69;40.09;102592.44;5033994;28;4175;-70
2022/12/17 20:45:47;;;;;;;;;;;;;;;20.74;40.03;102600.00;5034384;28;4441;-65
2022/12/17 20:48:14;;;;;;;;;;;;;;;20.68;40.71;102602.44;5042502;28;4041;-64
2022/12/17 20:50:40;;;;;;;;;;;;;;;20.74;40.41;102600.00;5047006;28;3988;-65
2022/12/17 20:53:07;;;;;;;;;;;;;;;20.72;40.30;102602.72;5034477;28;4265;-65
2022/12/17 20:55:36;;;;;;;;;;;;;;;20.72;40.65;102602.72;5034991;28;4202;-64
2022/12/17 20:58:02;;;;;;;;;;;;;;;20.73;40.44;102610.00;5042443;28;4220;-65
2022/12/17 21:00:29;;;;;;;;;;;;;;;20.68;40.49;102605.31;5042349;28;4194;-64
2022/12/17 21:02:56;;;;;;;;;;;;;;;20.56;40.78;102604.41;5035478;28;4385;-65
2022/12/17 21:05:25;;;;;;;;;;;;;;;20.57;40.81;102597.28;5036946;28;3948;-65
2022/12/17 21:07:52;;;;;;;;;;;;;;;20.55;40.70;102600.00;5031536;28;4205;-67
2022/12/17 21:10:19;;;;;;;;;;;;;;;20.55;40.79;102605.75;5050026;28;4040;-64
2022/12/17 21:15:30;;;;;;;;;;;;;;;20.52;40.51;102613.47;5033313;28;4110;-64
2022/12/17 21:17:57;;;;;;;;;;;;;;;20.48;40.64;102616.84;5038122;28;4130;-66
2022/12/17 21:20:23;;;;;;;;;;;;;;;20.47;40.47;102623.94;5052309;28;4134;-66
2022/12/17 21:22:53;;;;;;;;;;;;;;;20.46;40.37;102616.69;5039428;28;5575;-66
2022/12/17 21:25:20;;;;;;;;;;;;;;;20.33;40.77;102614.25;5045877;28;4483;-65
2022/12/17 21:27:47;;;;;;;;;;;;;;;20.20;41.21;102629.09;5042675;28;4197;-65
2022/12/17 21:30:14;;;;;;;;;;;;;;;20.32;40.99;102630.00;5046720;28;4115;-65
2022/12/17 21:32:40;;;;;;;;;;;;;;;20.35;40.97;102628.78;5055222;28;3968;-65
2022/12/17 21:35:07;;;;;;;;;;;;;;;20.34;40.57;102630.19;5051230;28;4105;-65
2022/12/17 21:37:34;;;;;;;;;;;;;;;20.34;40.50;102638.81;5036207;28;5478;-64
2022/12/17 21:40:00;;;;;;;;;;;;;;;20.33;40.27;102637.28;5044074;28;5229;-65
2022/12/17 21:45:12;;;;;;;;;;;;;;;20.29;40.23;102651.34;5044228;28;5504;-65
2022/12/17 21:47:39;;;;;;;;;;;;;;;20.26;40.25;102641.06;5049244;28;4413;-65
2022/12/17 21:50:05;;;;;;;;;;;;;;;20.25;40.09;102637.44;5039534;28;4133;-65
2022/12/17 21:52:32;;;;;;;;;;;;;;;20.24;40.03;102640.91;5036801;28;4179;-65
2022/12/17 21:54:58;;;;;;;;;;;;;;;20.21;40.10;102650.75;5043372;28;5205;-65
2022/12/17 21:57:24;;;;;;;;;;;;;;;20.20;40.09;102643.47;5043470;28;4208;-65
2022/12/17 21:59:50;;;;;;;;;;;;;;;20.21;40.02;102642.88;5041181;28;5184;-64
2022/12/17 22:02:18;;;;;;;;;;;;;;;20.23;40.19;102653.78;5033447;28;4572;-65
2022/12/17 22:04:45;;;;;;;;;;;;;;;20.18;40.19;102643.31;5036111;28;4071;-63
2022/12/17 22:07:12;;;;;;;;;;;;;;;20.21;40.17;102650.75;5025158;28;5324;-64
2022/12/17 22:09:44;;;;;;;;;;;;;;;20.16;40.47;102652.56;5039890;28;4181;-65
2022/12/17 22:15:16;;;;;;;;;;;;;;;20.26;40.20;102666.94;5038222;28;4158;-65
2022/12/17 22:17:43;;;;;;;;;;;;;;;20.24;40.38;102663.91;5041273;28;4179;-65
2022/12/17 22:20:09;;;;;;;;;;;;;;;20.23;40.31;102663.16;5044172;28;4114;-65
2022/12/17 22:22:35;;;;;;;;;;;;;;;20.23;40.34;102662.41;5043875;28;4026;-65
2022/12/17 22:25:02;;;;;;;;;;;;;;;20.21;40.46;102665.13;5043369;28;5221;-65
2022/12/17 22:27:36;;;;;;;;;;;;;;;20.19;40.51;102667.84;5040464;28;4475;-65
2022/12/17 22:33:01;;;;;;;;;;;;;;;20.20;40.63;102675.13;5041839;28;4193;-65
2022/12/17 22:35:33;;;;;;;;;;;;;;;20.19;40.74;102679.38;5040196;28;4092;-66
2022/12/17 22:38:20;;;;;;;;;;;;;;;20.18;40.59;102690.13;5043794;28;5263;-65
2022/12/17 22:43:28;;;;;;;;;;;;;;;20.17;40.64;102693.59;5040993;28;5539;-66
2022/12/17 22:44:15;;;;;;;;;;;;;;;20.17;40.69;102691.47;5037542;28;4116;-66
2022/12/17 22:47:01;;;;;;;;;;;;;;;20.16;40.86;102698.59;5043890;28;4152;-65
2022/12/17 22:49:28;;;;;;;;;;;;;;;20.15;40.77;102702.06;5037446;28;4875;-66
2022/12/17 22:52:00;;;;;;;;;;;;;;;20.14;40.82;102706.31;5043253;28;4123;-66
2022/12/17 22:54:27;;;;;;;;;;;;;;;20.12;40.83;102711.91;5055084;28;5204;-66
2022/12/17 22:56:53;;;;;;;;;;;;;;;20.11;40.80;102704.63;5042088;28;5377;-66
2022/12/17 22:59:40;;;;;;;;;;;;;;;20.09;40.83;102706.00;5045329;28;4056;-66
2022/12/17 23:02:07;;;;;;;;;;;;;;;20.08;40.95;102707.34;5045309;28;4213;-66
2022/12/17 23:04:34;;;;;;;;;;;;;;;20.08;40.92;102715.97;5041854;28;4397;-66
2022/12/17 23:07:00;;;;;;;;;;;;;;;20.06;40.94;102724.44;5044943;28;4127;-66
2022/12/17 23:09:26;;;;;;;;;;;;;;;20.08;41.07;102715.22;5048468;28;4028;-65
2022/12/17 23:11:53;;;;;;;;;;;;;;;20.07;41.13;102723.09;5037070;28;4187;-64
2022/12/17 23:14:19;;;;;;;;;;;;;;;20.09;41.01;102722.50;5048155;28;4456;-64
2022/12/17 23:16:45;;;;;;;;;;;;;;;20.08;41.04;102713.09;5041865;28;5400;-64
2022/12/17 23:19:12;;;;;;;;;;;;;;;20.09;40.94;102716.75;5046896;28;4185;-64
2022/12/17 23:21:38;;;;;;;;;;;;;;;20.09;40.89;102719.63;5041658;28;4171;-64
2022/12/17 23:24:05;;;;;;;;;;;;;;;20.09;41.07;102723.25;5043412;28;4331;-64
2022/12/17 23:26:33;;;;;;;;;;;;;;;20.07;40.95;102714.47;5047721;28;4380;-64
2022/12/17 23:29:00;;;;;;;;;;;;;;;20.07;41.03;102713.72;5040682;28;4108;-64
2022/12/17 23:31:27;;;;;;;;;;;;;;;20.05;40.95;102707.78;5045506;28;4071;-64
2022/12/17 23:33:54;;;;;;;;;;;;;;;20.03;41.04;102719.91;5050244;28;4105;-65
2022/12/17 23:36:20;;;;;;;;;;;;;;;20.03;41.02;102725.66;5045812;28;4020;-64
2022/12/17 23:38:48;;;;;;;;;;;;;;;20.02;41.18;102724.16;5031902;28;4870;-65
2022/12/17 23:41:21;;;;;;;;;;;;;;;20.01;41.14;102731.25;5038717;28;4134;-64
2022/12/17 23:43:48;;;;;;;;;;;;;;;20.01;41.14;102722.63;5038599;28;5256;-64
2022/12/17 23:46:14;;;;;;;;;;;;;;;20.04;41.05;102726.41;5039635;28;5427;-65
2022/12/17 23:48:41;;;;;;;;;;;;;;;20.02;41.10;102729.91;5046853;28;4203;-64
2022/12/17 23:51:12;;;;;;;;;;;;;;;20.02;41.11;102729.91;5042425;28;4149;-64
2022/12/17 23:53:38;;;;;;;;;;;;;;;20.01;41.10;102734.13;5039209;28;4199;-65
2022/12/17 23:56:05;;;;;;;;;;;;;;;20.01;41.02;102727.63;5030061;28;4913;-65
2022/12/17 23:58:32;;;;;;;;;;;;;;;20.00;41.14;102738.38;5034885;28;5164;-65
